sensor_id;sensor_type;location;lat;lon;timestamp;temperature;humidity
58983;DHT22;44771;49.982;8.560;2023-05-24T00:03:29;8.90;99.90
58983;DHT22;44771;49.982;8.560;2023-05-24T00:08:32;8.80;99.90
58983;DHT22;44771;49.982;8.560;2023-05-24T00:13:35;8.60;99.90
58983;DHT22;44771;49.982;8.560;2023-05-24T00:18:36;8.50;99.90
58983;DHT22;44771;49.982;8.560;2023-05-24T00:23:39;8.30;99.90
58983;DHT22;44771;49.982;8.560;2023-05-24T00:28:42;8.20;99.90
58983;DHT22;44771;49.982;8.560;2023-05-24T00:33:44;8.10;99.90
58983;DHT22;44771;49.982;8.560;2023-05-24T00:38:45;7.90;99.90
58983;DHT22;44771;49.982;8.560;2023-05-24T00:43:48;7.80;99.90
58983;DHT22;44771;49.982;8.560;2023-05-24T00:48:50;7.70;99.90
58983;DHT22;44771;49.982;8.560;2023-05-24T00:53:54;7.80;99.90
58983;DHT22;44771;49.982;8.560;2023-05-24T00:58:57;7.70;99.90
58983;DHT22;44771;49.982;8.560;2023-05-24T01:03:59;7.70;99.90
58983;DHT22;44771;49.982;8.560;2023-05-24T01:09:22;7.70;99.90
58983;DHT22;44771;49.982;8.560;2023-05-24T01:14:31;7.70;99.90
58983;DHT22;44771;49.982;8.560;2023-05-24T01:19:47;7.90;99.90
58983;DHT22;44771;49.982;8.560;2023-05-24T01:24:57;8.10;99.90
58983;DHT22;44771;49.982;8.560;2023-05-24T01:30:06;8.20;99.90
58983;DHT22;44771;49.982;8.560;2023-05-24T01:35:08;8.20;99.90
58983;DHT22;44771;49.982;8.560;2023-05-24T01:40:11;8.40;99.90
58983;DHT22;44771;49.982;8.560;2023-05-24T01:45:17;8.70;99.90
58983;DHT22;44771;49.982;8.560;2023-05-24T01:50:24;8.70;99.90
58983;DHT22;44771;49.982;8.560;2023-05-24T01:55:27;8.70;99.90
58983;DHT22;44771;49.982;8.560;2023-05-24T02:00:32;8.60;99.90
58983;DHT22;44771;49.982;8.560;2023-05-24T02:05:34;8.50;99.90
58983;DHT22;44771;49.982;8.560;2023-05-24T02:10:36;8.50;99.90
58983;DHT22;44771;49.982;8.560;2023-05-24T02:15:39;8.60;99.90
58983;DHT22;44771;49.982;8.560;2023-05-24T02:20:41;8.80;99.90
58983;DHT22;44771;49.982;8.560;2023-05-24T02:25:43;8.90;99.90
58983;DHT22;44771;49.982;8.560;2023-05-24T02:30:46;9.10;99.90
58983;DHT22;44771;49.982;8.560;2023-05-24T02:35:48;9.10;99.90
58983;DHT22;44771;49.982;8.560;2023-05-24T02:40:49;9.20;99.90
58983;DHT22;44771;49.982;8.560;2023-05-24T02:45:55;9.10;99.90
58983;DHT22;44771;49.982;8.560;2023-05-24T02:50:56;9.10;99.90
58983;DHT22;44771;49.982;8.560;2023-05-24T02:55:58;9.00;99.90
58983;DHT22;44771;49.982;8.560;2023-05-24T03:01:02;9.00;99.90
58983;DHT22;44771;49.982;8.560;2023-05-24T03:06:04;8.70;99.90
58983;DHT22;44771;49.982;8.560;2023-05-24T03:11:06;8.70;99.90
58983;DHT22;44771;49.982;8.560;2023-05-24T03:16:09;8.50;99.90
58983;DHT22;44771;49.982;8.560;2023-05-24T03:21:11;8.50;99.90
58983;DHT22;44771;49.982;8.560;2023-05-24T03:26:13;8.60;99.90
58983;DHT22;44771;49.982;8.560;2023-05-24T03:31:16;8.60;99.90
58983;DHT22;44771;49.982;8.560;2023-05-24T03:36:17;8.80;99.90
58983;DHT22;44771;49.982;8.560;2023-05-24T03:41:19;8.70;99.90
58983;DHT22;44771;49.982;8.560;2023-05-24T03:46:22;8.70;99.90
58983;DHT22;44771;49.982;8.560;2023-05-24T03:51:24;8.70;99.90
58983;DHT22;44771;49.982;8.560;2023-05-24T03:56:26;8.60;99.90
58983;DHT22;44771;49.982;8.560;2023-05-24T04:01:29;8.60;99.90
58983;DHT22;44771;49.982;8.560;2023-05-24T04:06:34;8.50;99.90
58983;DHT22;44771;49.982;8.560;2023-05-24T04:11:36;8.40;99.90
58983;DHT22;44771;49.982;8.560;2023-05-24T04:16:39;8.30;99.90
58983;DHT22;44771;49.982;8.560;2023-05-24T04:21:41;8.20;99.90
58983;DHT22;44771;49.982;8.560;2023-05-24T04:26:43;8.30;99.90
58983;DHT22;44771;49.982;8.560;2023-05-24T04:31:46;8.10;99.90
58983;DHT22;44771;49.982;8.560;2023-05-24T04:36:48;7.90;99.90
58983;DHT22;44771;49.982;8.560;2023-05-24T04:41:50;7.80;99.90
58983;DHT22;44771;49.982;8.560;2023-05-24T04:46:55;8.00;99.90
58983;DHT22;44771;49.982;8.560;2023-05-24T04:51:59;8.30;99.90
58983;DHT22;44771;49.982;8.560;2023-05-24T04:57:01;8.50;99.90
58983;DHT22;44771;49.982;8.560;2023-05-24T05:02:04;8.50;99.90
58983;DHT22;44771;49.982;8.560;2023-05-24T05:07:06;8.60;99.90
58983;DHT22;44771;49.982;8.560;2023-05-24T05:12:08;8.60;99.90
58983;DHT22;44771;49.982;8.560;2023-05-24T05:17:12;8.70;99.90
58983;DHT22;44771;49.982;8.560;2023-05-24T05:22:14;8.80;99.90
58983;DHT22;44771;49.982;8.560;2023-05-24T05:27:16;8.90;99.90
58983;DHT22;44771;49.982;8.560;2023-05-24T05:32:19;9.00;99.90
58983;DHT22;44771;49.982;8.560;2023-05-24T05:37:21;9.00;99.90
58983;DHT22;44771;49.982;8.560;2023-05-24T05:42:22;9.10;99.90
58983;DHT22;44771;49.982;8.560;2023-05-24T05:47:26;9.20;99.90
58983;DHT22;44771;49.982;8.560;2023-05-24T05:52:27;9.20;99.90
58983;DHT22;44771;49.982;8.560;2023-05-24T05:57:29;9.30;99.90
58983;DHT22;44771;49.982;8.560;2023-05-24T06:02:32;9.30;99.90
58983;DHT22;44771;49.982;8.560;2023-05-24T06:07:34;9.40;99.90
58983;DHT22;44771;49.982;8.560;2023-05-24T06:12:36;9.50;99.90
58983;DHT22;44771;49.982;8.560;2023-05-24T06:17:39;9.50;99.90
58983;DHT22;44771;49.982;8.560;2023-05-24T06:22:41;9.50;99.90
58983;DHT22;44771;49.982;8.560;2023-05-24T06:27:42;9.70;99.90
58983;DHT22;44771;49.982;8.560;2023-05-24T06:32:46;9.90;99.90
58983;DHT22;44771;49.982;8.560;2023-05-24T06:37:47;10.20;99.90
58983;DHT22;44771;49.982;8.560;2023-05-24T06:42:49;10.30;99.90
58983;DHT22;44771;49.982;8.560;2023-05-24T06:47:52;10.10;99.90
58983;DHT22;44771;49.982;8.560;2023-05-24T06:52:54;9.70;99.90
58983;DHT22;44771;49.982;8.560;2023-05-24T06:57:56;9.40;99.90
58983;DHT22;44771;49.982;8.560;2023-05-24T07:02:59;9.50;99.90
58983;DHT22;44771;49.982;8.560;2023-05-24T07:08:01;9.50;99.90
58983;DHT22;44771;49.982;8.560;2023-05-24T07:13:03;9.70;99.90
58983;DHT22;44771;49.982;8.560;2023-05-24T07:18:06;10.20;99.90
58983;DHT22;44771;49.982;8.560;2023-05-24T07:23:08;10.50;99.90
58983;DHT22;44771;49.982;8.560;2023-05-24T07:28:10;10.70;99.90
58983;DHT22;44771;49.982;8.560;2023-05-24T07:33:13;10.90;99.90
58983;DHT22;44771;49.982;8.560;2023-05-24T07:38:15;11.20;99.90
58983;DHT22;44771;49.982;8.560;2023-05-24T07:43:16;11.60;99.90
58983;DHT22;44771;49.982;8.560;2023-05-24T07:48:20;11.80;99.90
58983;DHT22;44771;49.982;8.560;2023-05-24T07:53:24;12.10;99.90
58983;DHT22;44771;49.982;8.560;2023-05-24T07:58:25;12.40;99.90
58983;DHT22;44771;49.982;8.560;2023-05-24T08:03:28;12.30;99.90
58983;DHT22;44771;49.982;8.560;2023-05-24T08:08:30;12.60;96.70
58983;DHT22;44771;49.982;8.560;2023-05-24T08:13:32;12.70;98.20
58983;DHT22;44771;49.982;8.560;2023-05-24T08:18:35;12.90;96.20
58983;DHT22;44771;49.982;8.560;2023-05-24T08:23:37;13.30;95.50
58983;DHT22;44771;49.982;8.560;2023-05-24T08:28:39;13.20;94.50
58983;DHT22;44771;49.982;8.560;2023-05-24T08:33:42;13.60;93.40
58983;DHT22;44771;49.982;8.560;2023-05-24T08:38:44;14.10;93.70
58983;DHT22;44771;49.982;8.560;2023-05-24T08:43:46;14.60;92.30
58983;DHT22;44771;49.982;8.560;2023-05-24T08:48:50;14.90;91.70
58983;DHT22;44771;49.982;8.560;2023-05-24T08:53:53;13.60;91.90
58983;DHT22;44771;49.982;8.560;2023-05-24T08:58:55;12.60;93.10
58983;DHT22;44771;49.982;8.560;2023-05-24T09:03:59;12.30;94.10
58983;DHT22;44771;49.982;8.560;2023-05-24T09:09:02;12.30;95.20
58983;DHT22;44771;49.982;8.560;2023-05-24T09:14:04;12.50;94.60
58983;DHT22;44771;49.982;8.560;2023-05-24T09:19:08;13.00;94.00
58983;DHT22;44771;49.982;8.560;2023-05-24T09:24:11;14.00;92.10
58983;DHT22;44771;49.982;8.560;2023-05-24T09:29:13;14.00;91.60
58983;DHT22;44771;49.982;8.560;2023-05-24T09:34:16;14.00;87.40
58983;DHT22;44771;49.982;8.560;2023-05-24T09:39:18;14.20;84.50
58983;DHT22;44771;49.982;8.560;2023-05-24T09:44:23;14.00;88.70
58983;DHT22;44771;49.982;8.560;2023-05-24T09:49:27;14.60;89.20
58983;DHT22;44771;49.982;8.560;2023-05-24T09:54:30;15.00;84.00
58983;DHT22;44771;49.982;8.560;2023-05-24T09:59:32;15.20;87.90
58983;DHT22;44771;49.982;8.560;2023-05-24T10:04:36;15.50;84.60
58983;DHT22;44771;49.982;8.560;2023-05-24T10:09:37;16.00;86.20
58983;DHT22;44771;49.982;8.560;2023-05-24T10:14:40;16.00;80.00
58983;DHT22;44771;49.982;8.560;2023-05-24T10:19:43;15.90;75.10
58983;DHT22;44771;49.982;8.560;2023-05-24T10:24:46;15.80;77.30
58983;DHT22;44771;49.982;8.560;2023-05-24T10:29:56;16.00;76.60
58983;DHT22;44771;49.982;8.560;2023-05-24T10:35:01;16.10;82.20
58983;DHT22;44771;49.982;8.560;2023-05-24T10:40:05;16.50;77.90
58983;DHT22;44771;49.982;8.560;2023-05-24T10:45:35;16.70;75.70
58983;DHT22;44771;49.982;8.560;2023-05-24T10:50:39;17.00;74.00
58983;DHT22;44771;49.982;8.560;2023-05-24T10:55:54;17.30;75.90
58983;DHT22;44771;49.982;8.560;2023-05-24T11:00:56;16.40;70.00
58983;DHT22;44771;49.982;8.560;2023-05-24T11:05:59;16.30;80.90
58983;DHT22;44771;49.982;8.560;2023-05-24T11:11:02;16.80;72.40
58983;DHT22;44771;49.982;8.560;2023-05-24T11:16:34;17.40;74.10
58983;DHT22;44771;49.982;8.560;2023-05-24T11:21:38;17.50;70.30
58983;DHT22;44771;49.982;8.560;2023-05-24T11:26:52;17.90;68.40
58983;DHT22;44771;49.982;8.560;2023-05-24T11:31:59;18.10;71.80
58983;DHT22;44771;49.982;8.560;2023-05-24T11:37:02;17.70;72.10
58983;DHT22;44771;49.982;8.560;2023-05-24T11:42:05;17.80;68.50
58983;DHT22;44771;49.982;8.560;2023-05-24T11:47:07;18.00;67.00
58983;DHT22;44771;49.982;8.560;2023-05-24T11:52:11;18.10;70.00
58983;DHT22;44771;49.982;8.560;2023-05-24T11:57:29;17.60;66.30
58983;DHT22;44771;49.982;8.560;2023-05-24T12:02:38;17.80;70.30
58983;DHT22;44771;49.982;8.560;2023-05-24T12:07:58;17.90;68.90
58983;DHT22;44771;49.982;8.560;2023-05-24T12:13:03;17.90;66.40
58983;DHT22;44771;49.982;8.560;2023-05-24T12:18:20;17.20;65.80
58983;DHT22;44771;49.982;8.560;2023-05-24T12:23:24;17.10;70.00
58983;DHT22;44771;49.982;8.560;2023-05-24T12:28:31;17.20;66.70
58983;DHT22;44771;49.982;8.560;2023-05-24T12:33:33;18.00;71.70
58983;DHT22;44771;49.982;8.560;2023-05-24T12:38:37;18.10;69.10
58983;DHT22;44771;49.982;8.560;2023-05-24T12:43:39;17.20;65.70
58983;DHT22;44771;49.982;8.560;2023-05-24T12:48:42;17.20;66.10
58983;DHT22;44771;49.982;8.560;2023-05-24T12:54:06;17.20;64.80
58983;DHT22;44771;49.982;8.560;2023-05-24T12:59:07;17.20;66.70
58983;DHT22;44771;49.982;8.560;2023-05-24T13:04:12;16.30;69.40
58983;DHT22;44771;49.982;8.560;2023-05-24T13:09:17;15.80;73.30
58983;DHT22;44771;49.982;8.560;2023-05-24T13:14:19;15.50;71.10
58983;DHT22;44771;49.982;8.560;2023-05-24T13:19:21;15.40;71.70
58983;DHT22;44771;49.982;8.560;2023-05-24T13:24:26;15.40;69.80
58983;DHT22;44771;49.982;8.560;2023-05-24T13:29:28;15.40;71.80
58983;DHT22;44771;49.982;8.560;2023-05-24T13:34:46;15.60;74.80
58983;DHT22;44771;49.982;8.560;2023-05-24T13:39:53;16.10;71.90
58983;DHT22;44771;49.982;8.560;2023-05-24T13:44:55;16.10;72.40
58983;DHT22;44771;49.982;8.560;2023-05-24T13:49:57;15.90;70.70
58983;DHT22;44771;49.982;8.560;2023-05-24T13:55:02;15.70;68.30
58983;DHT22;44771;49.982;8.560;2023-05-24T14:00:05;15.50;73.10
58983;DHT22;44771;49.982;8.560;2023-05-24T14:05:07;15.60;71.80
58983;DHT22;44771;49.982;8.560;2023-05-24T14:10:29;15.90;71.70
58983;DHT22;44771;49.982;8.560;2023-05-24T14:15:32;16.10;71.00
58983;DHT22;44771;49.982;8.560;2023-05-24T14:20:35;16.00;70.50
58983;DHT22;44771;49.982;8.560;2023-05-24T14:25:39;16.00;68.90
58983;DHT22;44771;49.982;8.560;2023-05-24T14:30:41;15.70;67.60
58983;DHT22;44771;49.982;8.560;2023-05-24T14:35:43;16.30;70.60
58983;DHT22;44771;49.982;8.560;2023-05-24T14:40:47;16.80;66.50
58983;DHT22;44771;49.982;8.560;2023-05-24T14:45:50;16.90;69.80
58983;DHT22;44771;49.982;8.560;2023-05-24T14:50:52;16.40;67.70
58983;DHT22;44771;49.982;8.560;2023-05-24T14:55:55;15.60;68.80
58983;DHT22;44771;49.982;8.560;2023-05-24T15:00:57;15.50;68.70
58983;DHT22;44771;49.982;8.560;2023-05-24T15:05:59;15.80;67.70
58983;DHT22;44771;49.982;8.560;2023-05-24T15:11:02;16.20;65.70
58983;DHT22;44771;49.982;8.560;2023-05-24T15:16:04;16.60;66.80
58983;DHT22;44771;49.982;8.560;2023-05-24T15:21:06;16.50;68.90
58983;DHT22;44771;49.982;8.560;2023-05-24T15:26:09;16.60;68.30
58983;DHT22;44771;49.982;8.560;2023-05-24T15:31:11;17.00;62.40
58983;DHT22;44771;49.982;8.560;2023-05-24T15:36:18;16.50;68.40
58983;DHT22;44771;49.982;8.560;2023-05-24T15:41:21;16.40;66.50
58983;DHT22;44771;49.982;8.560;2023-05-24T15:46:23;16.20;67.20
58983;DHT22;44771;49.982;8.560;2023-05-24T15:51:25;16.30;65.90
58983;DHT22;44771;49.982;8.560;2023-05-24T15:56:39;16.30;66.70
58983;DHT22;44771;49.982;8.560;2023-05-24T16:01:53;16.40;65.90
58983;DHT22;44771;49.982;8.560;2023-05-24T16:06:58;16.70;68.70
58983;DHT22;44771;49.982;8.560;2023-05-24T16:12:07;16.60;64.10
58983;DHT22;44771;49.982;8.560;2023-05-24T16:17:09;16.30;67.60
58983;DHT22;44771;49.982;8.560;2023-05-24T16:22:11;16.40;67.30
58983;DHT22;44771;49.982;8.560;2023-05-24T16:27:16;16.40;68.00
58983;DHT22;44771;49.982;8.560;2023-05-24T16:32:17;16.30;64.10
58983;DHT22;44771;49.982;8.560;2023-05-24T16:37:19;16.30;64.00
58983;DHT22;44771;49.982;8.560;2023-05-24T16:42:23;16.20;65.80
58983;DHT22;44771;49.982;8.560;2023-05-24T16:47:24;15.90;66.70
58983;DHT22;44771;49.982;8.560;2023-05-24T16:52:30;15.40;67.10
58983;DHT22;44771;49.982;8.560;2023-05-24T16:57:33;15.00;66.50
58983;DHT22;44771;49.982;8.560;2023-05-24T17:02:35;14.80;67.60
58983;DHT22;44771;49.982;8.560;2023-05-24T17:07:37;14.60;68.20
58983;DHT22;44771;49.982;8.560;2023-05-24T17:12:40;14.40;65.60
58983;DHT22;44771;49.982;8.560;2023-05-24T17:17:45;14.40;69.80
58983;DHT22;44771;49.982;8.560;2023-05-24T17:22:47;14.30;70.60
58983;DHT22;44771;49.982;8.560;2023-05-24T17:27:50;14.10;70.70
58983;DHT22;44771;49.982;8.560;2023-05-24T17:32:52;13.90;69.90
58983;DHT22;44771;49.982;8.560;2023-05-24T17:37:54;13.70;70.90
58983;DHT22;44771;49.982;8.560;2023-05-24T17:42:59;13.60;73.60
58983;DHT22;44771;49.982;8.560;2023-05-24T17:48:01;13.60;72.00
58983;DHT22;44771;49.982;8.560;2023-05-24T17:53:03;13.50;76.90
58983;DHT22;44771;49.982;8.560;2023-05-24T17:58:10;13.50;77.40
58983;DHT22;44771;49.982;8.560;2023-05-24T18:03:12;13.40;76.20
58983;DHT22;44771;49.982;8.560;2023-05-24T18:08:14;13.40;75.00
58983;DHT22;44771;49.982;8.560;2023-05-24T18:13:17;13.20;77.70
58983;DHT22;44771;49.982;8.560;2023-05-24T18:18:19;13.10;78.40
58983;DHT22;44771;49.982;8.560;2023-05-24T18:23:23;13.10;75.60
58983;DHT22;44771;49.982;8.560;2023-05-24T18:28:29;13.20;75.10
58983;DHT22;44771;49.982;8.560;2023-05-24T18:33:31;13.20;77.70
58983;DHT22;44771;49.982;8.560;2023-05-24T18:38:33;13.10;78.70
58983;DHT22;44771;49.982;8.560;2023-05-24T18:43:36;13.10;76.60
58983;DHT22;44771;49.982;8.560;2023-05-24T18:48:38;12.90;76.00
58983;DHT22;44771;49.982;8.560;2023-05-24T18:53:40;12.60;80.40
58983;DHT22;44771;49.982;8.560;2023-05-24T18:58:44;12.30;81.50
58983;DHT22;44771;49.982;8.560;2023-05-24T19:03:45;12.10;84.70
58983;DHT22;44771;49.982;8.560;2023-05-24T19:08:47;12.00;86.20
58983;DHT22;44771;49.982;8.560;2023-05-24T19:13:51;11.90;87.50
58983;DHT22;44771;49.982;8.560;2023-05-24T19:18:54;11.50;88.20
58983;DHT22;44771;49.982;8.560;2023-05-24T19:23:56;11.50;85.60
58983;DHT22;44771;49.982;8.560;2023-05-24T19:28:59;11.40;87.70
58983;DHT22;44771;49.982;8.560;2023-05-24T19:39:18;11.50;89.10
58983;DHT22;44771;49.982;8.560;2023-05-24T19:44:21;11.40;88.90
58983;DHT22;44771;49.982;8.560;2023-05-24T19:49:23;11.40;90.70
58983;DHT22;44771;49.982;8.560;2023-05-24T19:54:25;11.40;91.70
58983;DHT22;44771;49.982;8.560;2023-05-24T19:59:28;11.30;92.40
58983;DHT22;44771;49.982;8.560;2023-05-24T20:04:30;11.10;93.90
58983;DHT22;44771;49.982;8.560;2023-05-24T20:09:32;11.00;94.80
58983;DHT22;44771;49.982;8.560;2023-05-24T20:14:35;11.00;94.60
58983;DHT22;44771;49.982;8.560;2023-05-24T20:19:37;10.80;96.20
58983;DHT22;44771;49.982;8.560;2023-05-24T20:24:38;10.80;96.70
58983;DHT22;44771;49.982;8.560;2023-05-24T20:29:42;10.60;98.00
58983;DHT22;44771;49.982;8.560;2023-05-24T20:34:44;10.50;99.30
58983;DHT22;44771;49.982;8.560;2023-05-24T20:39:45;10.40;99.90
58983;DHT22;44771;49.982;8.560;2023-05-24T20:44:49;10.10;99.90
58983;DHT22;44771;49.982;8.560;2023-05-24T20:49:50;10.30;99.90
58983;DHT22;44771;49.982;8.560;2023-05-24T20:54:52;10.40;99.90
58983;DHT22;44771;49.982;8.560;2023-05-24T20:59:55;10.20;99.90
58983;DHT22;44771;49.982;8.560;2023-05-24T21:04:57;10.10;99.90
58983;DHT22;44771;49.982;8.560;2023-05-24T21:09:59;9.90;99.90
58983;DHT22;44771;49.982;8.560;2023-05-24T21:15:02;9.80;99.90
58983;DHT22;44771;49.982;8.560;2023-05-24T21:20:05;9.70;99.90
58983;DHT22;44771;49.982;8.560;2023-05-24T21:25:09;9.60;99.90
58983;DHT22;44771;49.982;8.560;2023-05-24T21:30:13;9.60;99.90
58983;DHT22;44771;49.982;8.560;2023-05-24T21:35:15;9.50;99.90
58983;DHT22;44771;49.982;8.560;2023-05-24T21:40:16;9.30;99.90
58983;DHT22;44771;49.982;8.560;2023-05-24T21:45:20;9.10;99.90
58983;DHT22;44771;49.982;8.560;2023-05-24T21:50:21;9.00;99.90
58983;DHT22;44771;49.982;8.560;2023-05-24T21:55:23;8.80;99.90
58983;DHT22;44771;49.982;8.560;2023-05-24T22:00:26;8.60;99.90
58983;DHT22;44771;49.982;8.560;2023-05-24T22:05:28;8.60;99.90
58983;DHT22;44771;49.982;8.560;2023-05-24T22:10:30;8.70;99.90
58983;DHT22;44771;49.982;8.560;2023-05-24T22:15:33;8.50;99.90
58983;DHT22;44771;49.982;8.560;2023-05-24T22:20:35;8.50;99.90
58983;DHT22;44771;49.982;8.560;2023-05-24T22:25:37;8.40;99.90
58983;DHT22;44771;49.982;8.560;2023-05-24T22:30:40;8.40;99.90
58983;DHT22;44771;49.982;8.560;2023-05-24T22:35:41;8.30;99.90
58983;DHT22;44771;49.982;8.560;2023-05-24T22:40:45;8.30;99.90
58983;DHT22;44771;49.982;8.560;2023-05-24T22:45:48;8.20;99.90
58983;DHT22;44771;49.982;8.560;2023-05-24T22:50:50;8.20;99.90
58983;DHT22;44771;49.982;8.560;2023-05-24T22:55:52;8.10;99.90
58983;DHT22;44771;49.982;8.560;2023-05-24T23:00:55;8.00;99.90
58983;DHT22;44771;49.982;8.560;2023-05-24T23:05:57;7.90;99.90
58983;DHT22;44771;49.982;8.560;2023-05-24T23:10:59;7.80;99.90
58983;DHT22;44771;49.982;8.560;2023-05-24T23:16:02;7.70;99.90
58983;DHT22;44771;49.982;8.560;2023-05-24T23:21:04;7.60;99.90
58983;DHT22;44771;49.982;8.560;2023-05-24T23:26:06;7.50;99.90
58983;DHT22;44771;49.982;8.560;2023-05-24T23:31:09;7.60;99.90
58983;DHT22;44771;49.982;8.560;2023-05-24T23:36:11;8.00;99.90
58983;DHT22;44771;49.982;8.560;2023-05-24T23:41:13;8.30;99.90
58983;DHT22;44771;49.982;8.560;2023-05-24T23:46:16;8.60;99.90
58983;DHT22;44771;49.982;8.560;2023-05-24T23:51:18;8.80;99.90
58983;DHT22;44771;49.982;8.560;2023-05-24T23:56:20;8.90;99.90
